sensor_id;sensor_type;location;lat;lon;timestamp;P1;durP1;ratioP1;P2;durP2;ratioP2
71176;SDS011;58877;51.992;4.504;2023-05-14T00:00:27;14.09;;;14.09;;
71176;SDS011;58877;51.992;4.504;2023-05-14T00:02:53;13.77;;;13.77;;
71176;SDS011;58877;51.992;4.504;2023-05-14T00:05:21;14.70;;;14.70;;
71176;SDS011;58877;51.992;4.504;2023-05-14T00:07:49;14.01;;;14.00;;
71176;SDS011;58877;51.992;4.504;2023-05-14T00:10:22;13.81;;;13.71;;
71176;SDS011;58877;51.992;4.504;2023-05-14T00:13:01;14.13;;;14.11;;
71176;SDS011;58877;51.992;4.504;2023-05-14T00:15:27;13.85;;;13.84;;
71176;SDS011;58877;51.992;4.504;2023-05-14T00:17:53;13.75;;;13.75;;
71176;SDS011;58877;51.992;4.504;2023-05-14T00:20:36;13.44;;;13.44;;
71176;SDS011;58877;51.992;4.504;2023-05-14T00:23:02;13.73;;;13.73;;
71176;SDS011;58877;51.992;4.504;2023-05-14T00:25:28;13.12;;;13.12;;
71176;SDS011;58877;51.992;4.504;2023-05-14T00:27:54;12.85;;;12.85;;
71176;SDS011;58877;51.992;4.504;2023-05-14T00:30:21;12.91;;;12.91;;
71176;SDS011;58877;51.992;4.504;2023-05-14T00:32:48;12.94;;;12.93;;
71176;SDS011;58877;51.992;4.504;2023-05-14T00:35:14;13.33;;;13.25;;
71176;SDS011;58877;51.992;4.504;2023-05-14T00:37:41;13.30;;;13.30;;
71176;SDS011;58877;51.992;4.504;2023-05-14T00:40:08;13.51;;;13.51;;
71176;SDS011;58877;51.992;4.504;2023-05-14T00:42:37;13.05;;;13.04;;
71176;SDS011;58877;51.992;4.504;2023-05-14T00:45:05;12.99;;;12.98;;
71176;SDS011;58877;51.992;4.504;2023-05-14T00:47:32;13.19;;;13.19;;
71176;SDS011;58877;51.992;4.504;2023-05-14T00:50:03;13.23;;;13.23;;
71176;SDS011;58877;51.992;4.504;2023-05-14T00:52:34;13.56;;;13.54;;
71176;SDS011;58877;51.992;4.504;2023-05-14T00:55:05;13.17;;;13.17;;
71176;SDS011;58877;51.992;4.504;2023-05-14T00:57:35;13.44;;;13.44;;
71176;SDS011;58877;51.992;4.504;2023-05-14T01:00:07;13.39;;;13.39;;
71176;SDS011;58877;51.992;4.504;2023-05-14T01:02:35;13.51;;;13.51;;
71176;SDS011;58877;51.992;4.504;2023-05-14T01:05:01;14.30;;;14.28;;
71176;SDS011;58877;51.992;4.504;2023-05-14T01:07:38;14.51;;;14.44;;
71176;SDS011;58877;51.992;4.504;2023-05-14T01:10:25;14.53;;;14.39;;
71176;SDS011;58877;51.992;4.504;2023-05-14T01:13:03;14.71;;;14.60;;
71176;SDS011;58877;51.992;4.504;2023-05-14T01:15:47;14.73;;;14.73;;
71176;SDS011;58877;51.992;4.504;2023-05-14T01:18:17;15.13;;;15.07;;
71176;SDS011;58877;51.992;4.504;2023-05-14T01:20:48;14.99;;;14.97;;
71176;SDS011;58877;51.992;4.504;2023-05-14T01:23:16;15.13;;;15.12;;
71176;SDS011;58877;51.992;4.504;2023-05-14T01:25:43;15.38;;;15.38;;
71176;SDS011;58877;51.992;4.504;2023-05-14T01:28:17;15.21;;;15.20;;
71176;SDS011;58877;51.992;4.504;2023-05-14T01:30:48;15.01;;;15.01;;
71176;SDS011;58877;51.992;4.504;2023-05-14T01:33:23;14.99;;;14.98;;
71176;SDS011;58877;51.992;4.504;2023-05-14T01:35:57;14.59;;;14.59;;
71176;SDS011;58877;51.992;4.504;2023-05-14T01:38:33;15.28;;;15.26;;
71176;SDS011;58877;51.992;4.504;2023-05-14T01:41:11;15.16;;;15.16;;
71176;SDS011;58877;51.992;4.504;2023-05-14T01:43:39;15.53;;;15.48;;
71176;SDS011;58877;51.992;4.504;2023-05-14T01:46:06;15.23;;;15.21;;
71176;SDS011;58877;51.992;4.504;2023-05-14T01:48:32;14.01;;;13.93;;
71176;SDS011;58877;51.992;4.504;2023-05-14T01:50:58;14.96;;;14.95;;
71176;SDS011;58877;51.992;4.504;2023-05-14T01:53:26;14.16;;;14.16;;
71176;SDS011;58877;51.992;4.504;2023-05-14T01:55:54;14.50;;;14.50;;
71176;SDS011;58877;51.992;4.504;2023-05-14T01:58:20;13.84;;;13.84;;
71176;SDS011;58877;51.992;4.504;2023-05-14T02:00:47;14.13;;;14.02;;
71176;SDS011;58877;51.992;4.504;2023-05-14T02:03:13;13.58;;;13.58;;
71176;SDS011;58877;51.992;4.504;2023-05-14T02:05:41;13.98;;;13.96;;
71176;SDS011;58877;51.992;4.504;2023-05-14T02:08:10;13.20;;;13.16;;
71176;SDS011;58877;51.992;4.504;2023-05-14T02:10:39;13.34;;;13.34;;
71176;SDS011;58877;51.992;4.504;2023-05-14T02:13:11;13.16;;;13.16;;
71176;SDS011;58877;51.992;4.504;2023-05-14T02:15:40;13.33;;;13.33;;
71176;SDS011;58877;51.992;4.504;2023-05-14T02:18:07;13.65;;;13.65;;
71176;SDS011;58877;51.992;4.504;2023-05-14T02:20:34;14.28;;;14.23;;
71176;SDS011;58877;51.992;4.504;2023-05-14T02:23:06;13.69;;;13.67;;
71176;SDS011;58877;51.992;4.504;2023-05-14T02:25:32;13.85;;;13.85;;
71176;SDS011;58877;51.992;4.504;2023-05-14T02:27:58;14.20;;;14.20;;
71176;SDS011;58877;51.992;4.504;2023-05-14T02:30:26;15.19;;;15.19;;
71176;SDS011;58877;51.992;4.504;2023-05-14T02:32:55;15.62;;;15.61;;
71176;SDS011;58877;51.992;4.504;2023-05-14T02:35:22;15.32;;;15.24;;
71176;SDS011;58877;51.992;4.504;2023-05-14T02:37:48;15.80;;;15.80;;
71176;SDS011;58877;51.992;4.504;2023-05-14T02:40:15;15.71;;;15.71;;
71176;SDS011;58877;51.992;4.504;2023-05-14T02:42:41;16.21;;;16.13;;
71176;SDS011;58877;51.992;4.504;2023-05-14T02:45:07;16.59;;;16.49;;
71176;SDS011;58877;51.992;4.504;2023-05-14T02:47:39;17.87;;;17.70;;
71176;SDS011;58877;51.992;4.504;2023-05-14T02:50:09;17.68;;;17.63;;
71176;SDS011;58877;51.992;4.504;2023-05-14T02:52:42;17.75;;;17.73;;
71176;SDS011;58877;51.992;4.504;2023-05-14T02:55:15;18.40;;;18.35;;
71176;SDS011;58877;51.992;4.504;2023-05-14T02:57:42;17.75;;;17.72;;
71176;SDS011;58877;51.992;4.504;2023-05-14T03:00:17;17.46;;;17.46;;
71176;SDS011;58877;51.992;4.504;2023-05-14T03:02:45;17.33;;;17.30;;
71176;SDS011;58877;51.992;4.504;2023-05-14T03:05:21;17.78;;;17.77;;
71176;SDS011;58877;51.992;4.504;2023-05-14T03:07:53;18.11;;;18.06;;
71176;SDS011;58877;51.992;4.504;2023-05-14T03:10:22;17.73;;;17.65;;
71176;SDS011;58877;51.992;4.504;2023-05-14T03:12:48;17.76;;;17.73;;
71176;SDS011;58877;51.992;4.504;2023-05-14T03:15:14;17.54;;;17.46;;
71176;SDS011;58877;51.992;4.504;2023-05-14T03:17:45;17.04;;;16.96;;
71176;SDS011;58877;51.992;4.504;2023-05-14T03:20:12;18.30;;;18.15;;
71176;SDS011;58877;51.992;4.504;2023-05-14T03:22:41;17.56;;;17.35;;
71176;SDS011;58877;51.992;4.504;2023-05-14T03:25:08;17.69;;;17.63;;
71176;SDS011;58877;51.992;4.504;2023-05-14T03:27:34;18.09;;;17.95;;
71176;SDS011;58877;51.992;4.504;2023-05-14T03:30:01;17.79;;;17.68;;
71176;SDS011;58877;51.992;4.504;2023-05-14T03:32:28;17.52;;;17.45;;
71176;SDS011;58877;51.992;4.504;2023-05-14T03:34:55;17.49;;;17.39;;
71176;SDS011;58877;51.992;4.504;2023-05-14T03:37:23;17.71;;;17.52;;
71176;SDS011;58877;51.992;4.504;2023-05-14T03:39:50;16.98;;;16.92;;
71176;SDS011;58877;51.992;4.504;2023-05-14T03:42:17;17.73;;;17.65;;
71176;SDS011;58877;51.992;4.504;2023-05-14T03:44:42;17.44;;;17.39;;
71176;SDS011;58877;51.992;4.504;2023-05-14T03:47:09;18.41;;;18.24;;
71176;SDS011;58877;51.992;4.504;2023-05-14T03:49:36;17.56;;;17.47;;
71176;SDS011;58877;51.992;4.504;2023-05-14T03:52:02;17.04;;;16.92;;
71176;SDS011;58877;51.992;4.504;2023-05-14T03:54:28;16.61;;;16.56;;
71176;SDS011;58877;51.992;4.504;2023-05-14T03:56:54;16.83;;;16.79;;
71176;SDS011;58877;51.992;4.504;2023-05-14T03:59:21;16.95;;;16.92;;
71176;SDS011;58877;51.992;4.504;2023-05-14T04:04:18;17.40;;;17.30;;
71176;SDS011;58877;51.992;4.504;2023-05-14T04:06:43;18.29;;;18.23;;
71176;SDS011;58877;51.992;4.504;2023-05-14T04:09:09;16.49;;;16.49;;
71176;SDS011;58877;51.992;4.504;2023-05-14T04:11:35;17.56;;;17.51;;
71176;SDS011;58877;51.992;4.504;2023-05-14T04:14:01;17.93;;;17.80;;
71176;SDS011;58877;51.992;4.504;2023-05-14T04:16:27;17.62;;;17.62;;
71176;SDS011;58877;51.992;4.504;2023-05-14T04:18:53;17.77;;;17.63;;
71176;SDS011;58877;51.992;4.504;2023-05-14T04:21:19;17.82;;;17.76;;
71176;SDS011;58877;51.992;4.504;2023-05-14T04:23:44;17.80;;;17.76;;
71176;SDS011;58877;51.992;4.504;2023-05-14T04:26:10;17.86;;;17.82;;
71176;SDS011;58877;51.992;4.504;2023-05-14T04:28:36;17.27;;;17.24;;
71176;SDS011;58877;51.992;4.504;2023-05-14T04:31:04;17.93;;;17.92;;
71176;SDS011;58877;51.992;4.504;2023-05-14T04:33:30;17.36;;;17.29;;
71176;SDS011;58877;51.992;4.504;2023-05-14T04:35:56;17.89;;;17.75;;
71176;SDS011;58877;51.992;4.504;2023-05-14T04:38:21;17.47;;;17.44;;
71176;SDS011;58877;51.992;4.504;2023-05-14T04:40:47;17.76;;;17.65;;
71176;SDS011;58877;51.992;4.504;2023-05-14T04:43:13;17.57;;;17.55;;
71176;SDS011;58877;51.992;4.504;2023-05-14T04:45:38;17.25;;;17.22;;
71176;SDS011;58877;51.992;4.504;2023-05-14T04:48:05;17.27;;;17.21;;
71176;SDS011;58877;51.992;4.504;2023-05-14T04:50:32;16.17;;;16.13;;
71176;SDS011;58877;51.992;4.504;2023-05-14T04:52:58;15.62;;;15.61;;
71176;SDS011;58877;51.992;4.504;2023-05-14T04:55:24;17.59;;;17.52;;
71176;SDS011;58877;51.992;4.504;2023-05-14T04:57:53;17.54;;;17.45;;
71176;SDS011;58877;51.992;4.504;2023-05-14T05:00:19;17.11;;;17.10;;
71176;SDS011;58877;51.992;4.504;2023-05-14T05:02:46;16.33;;;16.28;;
71176;SDS011;58877;51.992;4.504;2023-05-14T05:05:12;16.75;;;16.69;;
71176;SDS011;58877;51.992;4.504;2023-05-14T05:07:38;16.41;;;16.37;;
71176;SDS011;58877;51.992;4.504;2023-05-14T05:10:04;16.51;;;16.35;;
71176;SDS011;58877;51.992;4.504;2023-05-14T05:12:30;15.63;;;15.55;;
71176;SDS011;58877;51.992;4.504;2023-05-14T05:14:56;16.43;;;16.36;;
71176;SDS011;58877;51.992;4.504;2023-05-14T05:17:22;15.78;;;15.73;;
71176;SDS011;58877;51.992;4.504;2023-05-14T05:19:49;16.07;;;15.98;;
71176;SDS011;58877;51.992;4.504;2023-05-14T05:22:14;16.20;;;16.19;;
71176;SDS011;58877;51.992;4.504;2023-05-14T05:24:43;17.11;;;17.08;;
71176;SDS011;58877;51.992;4.504;2023-05-14T05:27:09;16.74;;;16.65;;
71176;SDS011;58877;51.992;4.504;2023-05-14T05:29:35;17.05;;;17.04;;
71176;SDS011;58877;51.992;4.504;2023-05-14T05:32:00;16.59;;;16.52;;
71176;SDS011;58877;51.992;4.504;2023-05-14T05:34:26;16.48;;;16.43;;
71176;SDS011;58877;51.992;4.504;2023-05-14T05:36:52;16.93;;;16.82;;
71176;SDS011;58877;51.992;4.504;2023-05-14T05:39:18;17.28;;;17.14;;
71176;SDS011;58877;51.992;4.504;2023-05-14T05:41:43;16.66;;;16.49;;
71176;SDS011;58877;51.992;4.504;2023-05-14T05:44:09;18.29;;;18.02;;
71176;SDS011;58877;51.992;4.504;2023-05-14T05:46:35;18.05;;;17.95;;
71176;SDS011;58877;51.992;4.504;2023-05-14T05:49:00;18.73;;;18.70;;
71176;SDS011;58877;51.992;4.504;2023-05-14T05:51:26;20.64;;;20.42;;
71176;SDS011;58877;51.992;4.504;2023-05-14T05:53:52;20.33;;;20.08;;
71176;SDS011;58877;51.992;4.504;2023-05-14T05:56:17;20.47;;;20.32;;
71176;SDS011;58877;51.992;4.504;2023-05-14T05:58:43;21.14;;;20.96;;
71176;SDS011;58877;51.992;4.504;2023-05-14T06:01:09;20.79;;;20.45;;
71176;SDS011;58877;51.992;4.504;2023-05-14T06:03:35;21.66;;;21.35;;
71176;SDS011;58877;51.992;4.504;2023-05-14T06:06:00;21.45;;;21.18;;
71176;SDS011;58877;51.992;4.504;2023-05-14T06:08:27;21.16;;;20.98;;
71176;SDS011;58877;51.992;4.504;2023-05-14T06:10:52;22.60;;;22.18;;
71176;SDS011;58877;51.992;4.504;2023-05-14T06:13:18;23.34;;;22.80;;
71176;SDS011;58877;51.992;4.504;2023-05-14T06:15:44;21.96;;;21.69;;
71176;SDS011;58877;51.992;4.504;2023-05-14T06:18:09;22.12;;;21.87;;
71176;SDS011;58877;51.992;4.504;2023-05-14T06:20:35;22.39;;;22.06;;
71176;SDS011;58877;51.992;4.504;2023-05-14T06:23:01;23.87;;;23.45;;
71176;SDS011;58877;51.992;4.504;2023-05-14T06:25:27;23.59;;;23.27;;
71176;SDS011;58877;51.992;4.504;2023-05-14T06:27:52;22.06;;;21.76;;
71176;SDS011;58877;51.992;4.504;2023-05-14T06:30:18;22.76;;;22.55;;
71176;SDS011;58877;51.992;4.504;2023-05-14T06:32:44;23.46;;;23.37;;
71176;SDS011;58877;51.992;4.504;2023-05-14T06:35:12;22.11;;;21.97;;
71176;SDS011;58877;51.992;4.504;2023-05-14T06:37:38;22.20;;;21.94;;
71176;SDS011;58877;51.992;4.504;2023-05-14T06:40:04;21.07;;;20.80;;
71176;SDS011;58877;51.992;4.504;2023-05-14T06:42:30;21.39;;;21.19;;
71176;SDS011;58877;51.992;4.504;2023-05-14T06:44:55;20.73;;;20.62;;
71176;SDS011;58877;51.992;4.504;2023-05-14T06:47:21;21.03;;;20.82;;
71176;SDS011;58877;51.992;4.504;2023-05-14T06:49:47;19.68;;;19.52;;
71176;SDS011;58877;51.992;4.504;2023-05-14T06:52:12;19.99;;;19.94;;
71176;SDS011;58877;51.992;4.504;2023-05-14T06:54:38;19.06;;;19.06;;
71176;SDS011;58877;51.992;4.504;2023-05-14T06:57:04;18.98;;;18.84;;
71176;SDS011;58877;51.992;4.504;2023-05-14T06:59:30;18.93;;;18.72;;
71176;SDS011;58877;51.992;4.504;2023-05-14T07:01:55;17.47;;;17.41;;
71176;SDS011;58877;51.992;4.504;2023-05-14T07:04:21;16.89;;;16.82;;
71176;SDS011;58877;51.992;4.504;2023-05-14T07:06:47;17.07;;;17.04;;
71176;SDS011;58877;51.992;4.504;2023-05-14T07:09:16;17.62;;;17.62;;
71176;SDS011;58877;51.992;4.504;2023-05-14T07:11:41;16.65;;;16.65;;
71176;SDS011;58877;51.992;4.504;2023-05-14T07:14:07;17.36;;;17.36;;
71176;SDS011;58877;51.992;4.504;2023-05-14T07:16:33;16.82;;;16.82;;
71176;SDS011;58877;51.992;4.504;2023-05-14T07:19:02;16.14;;;16.13;;
71176;SDS011;58877;51.992;4.504;2023-05-14T07:21:27;16.34;;;16.34;;
71176;SDS011;58877;51.992;4.504;2023-05-14T07:23:53;15.48;;;15.48;;
71176;SDS011;58877;51.992;4.504;2023-05-14T07:26:19;16.77;;;16.69;;
71176;SDS011;58877;51.992;4.504;2023-05-14T07:28:45;14.97;;;14.97;;
71176;SDS011;58877;51.992;4.504;2023-05-14T07:31:14;15.66;;;15.58;;
71176;SDS011;58877;51.992;4.504;2023-05-14T07:33:40;16.60;;;16.55;;
71176;SDS011;58877;51.992;4.504;2023-05-14T07:36:06;14.75;;;14.74;;
71176;SDS011;58877;51.992;4.504;2023-05-14T07:38:32;13.39;;;13.39;;
71176;SDS011;58877;51.992;4.504;2023-05-14T07:40:58;13.71;;;13.71;;
71176;SDS011;58877;51.992;4.504;2023-05-14T07:43:24;13.37;;;13.37;;
71176;SDS011;58877;51.992;4.504;2023-05-14T07:45:50;14.07;;;14.07;;
71176;SDS011;58877;51.992;4.504;2023-05-14T07:48:16;13.06;;;13.05;;
71176;SDS011;58877;51.992;4.504;2023-05-14T07:50:42;12.14;;;12.14;;
71176;SDS011;58877;51.992;4.504;2023-05-14T07:53:07;11.58;;;11.57;;
71176;SDS011;58877;51.992;4.504;2023-05-14T07:55:33;11.12;;;11.12;;
71176;SDS011;58877;51.992;4.504;2023-05-14T07:57:59;11.63;;;11.63;;
71176;SDS011;58877;51.992;4.504;2023-05-14T08:00:24;11.31;;;11.30;;
71176;SDS011;58877;51.992;4.504;2023-05-14T08:02:50;12.22;;;12.20;;
71176;SDS011;58877;51.992;4.504;2023-05-14T08:05:19;12.91;;;12.91;;
71176;SDS011;58877;51.992;4.504;2023-05-14T08:07:48;12.69;;;12.69;;
71176;SDS011;58877;51.992;4.504;2023-05-14T08:10:15;12.90;;;12.90;;
71176;SDS011;58877;51.992;4.504;2023-05-14T08:12:40;12.90;;;12.90;;
71176;SDS011;58877;51.992;4.504;2023-05-14T08:15:06;11.43;;;11.36;;
71176;SDS011;58877;51.992;4.504;2023-05-14T08:17:33;10.53;;;10.53;;
71176;SDS011;58877;51.992;4.504;2023-05-14T08:19:59;9.77;;;9.77;;
71176;SDS011;58877;51.992;4.504;2023-05-14T08:22:27;9.52;;;9.52;;
71176;SDS011;58877;51.992;4.504;2023-05-14T08:24:53;9.19;;;9.19;;
71176;SDS011;58877;51.992;4.504;2023-05-14T08:27:19;9.21;;;9.21;;
71176;SDS011;58877;51.992;4.504;2023-05-14T08:29:45;9.84;;;9.83;;
71176;SDS011;58877;51.992;4.504;2023-05-14T08:32:11;9.37;;;9.36;;
71176;SDS011;58877;51.992;4.504;2023-05-14T08:34:37;8.91;;;8.91;;
71176;SDS011;58877;51.992;4.504;2023-05-14T08:37:03;8.67;;;8.67;;
71176;SDS011;58877;51.992;4.504;2023-05-14T08:39:29;8.79;;;8.79;;
71176;SDS011;58877;51.992;4.504;2023-05-14T08:41:55;8.98;;;8.98;;
71176;SDS011;58877;51.992;4.504;2023-05-14T08:44:30;9.00;;;9.00;;
71176;SDS011;58877;51.992;4.504;2023-05-14T08:47:06;8.62;;;8.62;;
71176;SDS011;58877;51.992;4.504;2023-05-14T08:49:39;9.26;;;9.26;;
71176;SDS011;58877;51.992;4.504;2023-05-14T08:52:10;8.69;;;8.69;;
71176;SDS011;58877;51.992;4.504;2023-05-14T08:54:37;8.03;;;8.03;;
71176;SDS011;58877;51.992;4.504;2023-05-14T08:57:04;8.40;;;8.40;;
71176;SDS011;58877;51.992;4.504;2023-05-14T08:59:34;8.06;;;8.05;;
71176;SDS011;58877;51.992;4.504;2023-05-14T09:02:00;7.90;;;7.90;;
71176;SDS011;58877;51.992;4.504;2023-05-14T09:04:29;7.21;;;7.21;;
71176;SDS011;58877;51.992;4.504;2023-05-14T09:06:56;7.38;;;7.38;;
71176;SDS011;58877;51.992;4.504;2023-05-14T09:09:26;7.75;;;7.75;;
71176;SDS011;58877;51.992;4.504;2023-05-14T09:11:52;7.94;;;7.94;;
71176;SDS011;58877;51.992;4.504;2023-05-14T09:14:19;7.88;;;7.88;;
71176;SDS011;58877;51.992;4.504;2023-05-14T09:16:47;8.04;;;8.04;;
71176;SDS011;58877;51.992;4.504;2023-05-14T09:19:14;7.41;;;7.41;;
71176;SDS011;58877;51.992;4.504;2023-05-14T09:21:47;8.23;;;8.23;;
71176;SDS011;58877;51.992;4.504;2023-05-14T09:24:20;7.94;;;7.94;;
71176;SDS011;58877;51.992;4.504;2023-05-14T09:26:52;7.70;;;7.70;;
71176;SDS011;58877;51.992;4.504;2023-05-14T09:29:19;7.17;;;7.16;;
71176;SDS011;58877;51.992;4.504;2023-05-14T09:31:44;7.65;;;7.64;;
71176;SDS011;58877;51.992;4.504;2023-05-14T09:34:10;7.56;;;7.55;;
71176;SDS011;58877;51.992;4.504;2023-05-14T09:36:47;6.77;;;6.72;;
71176;SDS011;58877;51.992;4.504;2023-05-14T09:39:12;7.01;;;7.01;;
71176;SDS011;58877;51.992;4.504;2023-05-14T09:41:38;7.40;;;7.40;;
71176;SDS011;58877;51.992;4.504;2023-05-14T09:44:04;7.35;;;7.34;;
71176;SDS011;58877;51.992;4.504;2023-05-14T09:46:29;7.16;;;7.16;;
71176;SDS011;58877;51.992;4.504;2023-05-14T09:48:57;7.09;;;7.09;;
71176;SDS011;58877;51.992;4.504;2023-05-14T09:51:23;7.17;;;7.17;;
71176;SDS011;58877;51.992;4.504;2023-05-14T09:53:51;7.03;;;7.03;;
71176;SDS011;58877;51.992;4.504;2023-05-14T09:56:18;7.08;;;7.08;;
71176;SDS011;58877;51.992;4.504;2023-05-14T09:58:45;6.89;;;6.89;;
71176;SDS011;58877;51.992;4.504;2023-05-14T10:01:11;7.42;;;7.42;;
71176;SDS011;58877;51.992;4.504;2023-05-14T10:03:42;7.11;;;7.08;;
71176;SDS011;58877;51.992;4.504;2023-05-14T10:06:08;7.30;;;7.30;;
71176;SDS011;58877;51.992;4.504;2023-05-14T10:08:43;7.74;;;7.74;;
71176;SDS011;58877;51.992;4.504;2023-05-14T10:11:19;7.94;;;7.94;;
71176;SDS011;58877;51.992;4.504;2023-05-14T10:16:51;7.81;;;7.81;;
71176;SDS011;58877;51.992;4.504;2023-05-14T10:19:22;8.01;;;8.01;;
71176;SDS011;58877;51.992;4.504;2023-05-14T10:21:52;7.98;;;7.98;;
71176;SDS011;58877;51.992;4.504;2023-05-14T10:24:37;7.86;;;7.86;;
71176;SDS011;58877;51.992;4.504;2023-05-14T10:27:04;8.30;;;8.30;;
71176;SDS011;58877;51.992;4.504;2023-05-14T10:29:33;7.87;;;7.87;;
71176;SDS011;58877;51.992;4.504;2023-05-14T10:32:08;7.82;;;7.82;;
71176;SDS011;58877;51.992;4.504;2023-05-14T10:35:01;7.59;;;7.59;;
71176;SDS011;58877;51.992;4.504;2023-05-14T10:37:51;7.79;;;7.79;;
71176;SDS011;58877;51.992;4.504;2023-05-14T10:40:19;6.96;;;6.96;;
71176;SDS011;58877;51.992;4.504;2023-05-14T10:42:50;8.43;;;8.43;;
71176;SDS011;58877;51.992;4.504;2023-05-14T10:45:19;8.59;;;8.59;;
71176;SDS011;58877;51.992;4.504;2023-05-14T10:47:47;7.94;;;7.94;;
71176;SDS011;58877;51.992;4.504;2023-05-14T10:50:17;8.05;;;8.05;;
71176;SDS011;58877;51.992;4.504;2023-05-14T10:52:44;8.14;;;8.14;;
71176;SDS011;58877;51.992;4.504;2023-05-14T10:55:12;7.65;;;7.65;;
71176;SDS011;58877;51.992;4.504;2023-05-14T10:57:41;8.04;;;8.04;;
71176;SDS011;58877;51.992;4.504;2023-05-14T11:00:08;7.80;;;7.80;;
71176;SDS011;58877;51.992;4.504;2023-05-14T11:02:36;7.70;;;7.70;;
71176;SDS011;58877;51.992;4.504;2023-05-14T11:05:11;8.25;;;8.25;;
71176;SDS011;58877;51.992;4.504;2023-05-14T11:07:40;7.79;;;7.79;;
71176;SDS011;58877;51.992;4.504;2023-05-14T11:10:15;7.82;;;7.82;;
71176;SDS011;58877;51.992;4.504;2023-05-14T11:12:47;7.68;;;7.68;;
71176;SDS011;58877;51.992;4.504;2023-05-14T11:15:21;7.96;;;7.96;;
71176;SDS011;58877;51.992;4.504;2023-05-14T11:17:54;7.68;;;7.68;;
71176;SDS011;58877;51.992;4.504;2023-05-14T11:20:21;8.35;;;8.35;;
71176;SDS011;58877;51.992;4.504;2023-05-14T11:22:48;7.94;;;7.94;;
71176;SDS011;58877;51.992;4.504;2023-05-14T11:25:17;8.15;;;8.15;;
71176;SDS011;58877;51.992;4.504;2023-05-14T11:27:52;7.67;;;7.66;;
71176;SDS011;58877;51.992;4.504;2023-05-14T11:30:28;8.07;;;8.07;;
71176;SDS011;58877;51.992;4.504;2023-05-14T11:33:06;7.89;;;7.89;;
71176;SDS011;58877;51.992;4.504;2023-05-14T11:35:32;7.62;;;7.62;;
71176;SDS011;58877;51.992;4.504;2023-05-14T11:38:00;7.58;;;7.58;;
71176;SDS011;58877;51.992;4.504;2023-05-14T11:40:32;7.82;;;7.82;;
71176;SDS011;58877;51.992;4.504;2023-05-14T11:42:58;7.54;;;7.54;;
71176;SDS011;58877;51.992;4.504;2023-05-14T11:45:25;6.84;;;6.84;;
71176;SDS011;58877;51.992;4.504;2023-05-14T11:47:56;8.17;;;8.17;;
71176;SDS011;58877;51.992;4.504;2023-05-14T11:50:28;7.18;;;7.18;;
71176;SDS011;58877;51.992;4.504;2023-05-14T11:52:57;6.91;;;6.91;;
71176;SDS011;58877;51.992;4.504;2023-05-14T11:55:25;6.60;;;6.60;;
71176;SDS011;58877;51.992;4.504;2023-05-14T11:57:51;6.72;;;6.72;;
71176;SDS011;58877;51.992;4.504;2023-05-14T12:00:18;6.91;;;6.91;;
71176;SDS011;58877;51.992;4.504;2023-05-14T12:02:48;6.51;;;6.51;;
71176;SDS011;58877;51.992;4.504;2023-05-14T12:05:17;6.91;;;6.91;;
71176;SDS011;58877;51.992;4.504;2023-05-14T12:07:46;7.06;;;7.06;;
71176;SDS011;58877;51.992;4.504;2023-05-14T12:10:12;6.71;;;6.71;;
71176;SDS011;58877;51.992;4.504;2023-05-14T12:12:46;6.87;;;6.87;;
71176;SDS011;58877;51.992;4.504;2023-05-14T12:15:15;6.57;;;6.57;;
71176;SDS011;58877;51.992;4.504;2023-05-14T12:17:48;6.68;;;6.68;;
71176;SDS011;58877;51.992;4.504;2023-05-14T12:20:21;6.79;;;6.79;;
71176;SDS011;58877;51.992;4.504;2023-05-14T12:22:51;6.92;;;6.92;;
71176;SDS011;58877;51.992;4.504;2023-05-14T12:25:20;6.49;;;6.49;;
71176;SDS011;58877;51.992;4.504;2023-05-14T12:27:50;6.72;;;6.72;;
71176;SDS011;58877;51.992;4.504;2023-05-14T12:30:18;6.28;;;6.28;;
71176;SDS011;58877;51.992;4.504;2023-05-14T12:32:45;6.47;;;6.47;;
71176;SDS011;58877;51.992;4.504;2023-05-14T12:35:12;6.40;;;6.40;;
71176;SDS011;58877;51.992;4.504;2023-05-14T12:37:47;6.02;;;6.02;;
71176;SDS011;58877;51.992;4.504;2023-05-14T12:40:25;5.81;;;5.81;;
71176;SDS011;58877;51.992;4.504;2023-05-14T12:42:53;6.81;;;6.81;;
71176;SDS011;58877;51.992;4.504;2023-05-14T12:45:25;6.28;;;6.28;;
71176;SDS011;58877;51.992;4.504;2023-05-14T12:47:58;6.50;;;6.50;;
71176;SDS011;58877;51.992;4.504;2023-05-14T12:50:28;6.06;;;6.06;;
71176;SDS011;58877;51.992;4.504;2023-05-14T12:52:53;6.38;;;6.38;;
71176;SDS011;58877;51.992;4.504;2023-05-14T12:55:20;6.93;;;6.93;;
71176;SDS011;58877;51.992;4.504;2023-05-14T12:57:46;6.08;;;6.07;;
71176;SDS011;58877;51.992;4.504;2023-05-14T13:00:12;6.05;;;6.05;;
71176;SDS011;58877;51.992;4.504;2023-05-14T13:02:38;6.04;;;6.04;;
71176;SDS011;58877;51.992;4.504;2023-05-14T13:05:07;6.30;;;6.30;;
71176;SDS011;58877;51.992;4.504;2023-05-14T13:07:33;5.87;;;5.87;;
71176;SDS011;58877;51.992;4.504;2023-05-14T13:10:00;5.57;;;5.57;;
71176;SDS011;58877;51.992;4.504;2023-05-14T13:12:26;5.46;;;5.46;;
71176;SDS011;58877;51.992;4.504;2023-05-14T13:14:52;6.45;;;6.45;;
71176;SDS011;58877;51.992;4.504;2023-05-14T13:17:18;6.34;;;6.34;;
71176;SDS011;58877;51.992;4.504;2023-05-14T13:19:43;6.44;;;6.44;;
71176;SDS011;58877;51.992;4.504;2023-05-14T13:22:13;6.49;;;6.49;;
71176;SDS011;58877;51.992;4.504;2023-05-14T13:25:02;6.42;;;6.42;;
71176;SDS011;58877;51.992;4.504;2023-05-14T13:27:29;6.92;;;6.92;;
71176;SDS011;58877;51.992;4.504;2023-05-14T13:29:55;6.33;;;6.33;;
71176;SDS011;58877;51.992;4.504;2023-05-14T13:32:24;6.60;;;6.59;;
71176;SDS011;58877;51.992;4.504;2023-05-14T13:34:50;6.97;;;6.96;;
71176;SDS011;58877;51.992;4.504;2023-05-14T13:37:21;7.32;;;7.32;;
71176;SDS011;58877;51.992;4.504;2023-05-14T13:39:47;7.23;;;7.23;;
71176;SDS011;58877;51.992;4.504;2023-05-14T13:42:13;6.68;;;6.68;;
71176;SDS011;58877;51.992;4.504;2023-05-14T13:44:39;6.91;;;6.91;;
71176;SDS011;58877;51.992;4.504;2023-05-14T13:47:06;6.02;;;6.02;;
71176;SDS011;58877;51.992;4.504;2023-05-14T13:49:33;6.65;;;6.65;;
71176;SDS011;58877;51.992;4.504;2023-05-14T13:51:59;6.83;;;6.83;;
71176;SDS011;58877;51.992;4.504;2023-05-14T13:54:30;7.70;;;7.70;;
71176;SDS011;58877;51.992;4.504;2023-05-14T13:57:00;7.09;;;7.09;;
71176;SDS011;58877;51.992;4.504;2023-05-14T13:59:30;7.13;;;7.13;;
71176;SDS011;58877;51.992;4.504;2023-05-14T14:02:06;7.17;;;7.17;;
71176;SDS011;58877;51.992;4.504;2023-05-14T14:04:43;8.02;;;8.02;;
71176;SDS011;58877;51.992;4.504;2023-05-14T14:07:13;7.06;;;7.06;;
71176;SDS011;58877;51.992;4.504;2023-05-14T14:09:41;6.33;;;6.33;;
71176;SDS011;58877;51.992;4.504;2023-05-14T14:12:10;6.47;;;6.47;;
71176;SDS011;58877;51.992;4.504;2023-05-14T14:14:46;6.66;;;6.66;;
71176;SDS011;58877;51.992;4.504;2023-05-14T14:17:29;6.90;;;6.90;;
71176;SDS011;58877;51.992;4.504;2023-05-14T14:19:59;6.04;;;6.04;;
71176;SDS011;58877;51.992;4.504;2023-05-14T14:22:26;6.46;;;6.46;;
71176;SDS011;58877;51.992;4.504;2023-05-14T14:24:55;6.28;;;6.28;;
71176;SDS011;58877;51.992;4.504;2023-05-14T14:27:21;7.32;;;7.32;;
71176;SDS011;58877;51.992;4.504;2023-05-14T14:30:00;7.08;;;7.08;;
71176;SDS011;58877;51.992;4.504;2023-05-14T14:32:29;6.74;;;6.74;;
71176;SDS011;58877;51.992;4.504;2023-05-14T14:34:59;7.41;;;7.41;;
71176;SDS011;58877;51.992;4.504;2023-05-14T14:37:32;7.51;;;7.51;;
71176;SDS011;58877;51.992;4.504;2023-05-14T14:40:28;7.22;;;7.22;;
71176;SDS011;58877;51.992;4.504;2023-05-14T14:42:59;6.99;;;6.99;;
71176;SDS011;58877;51.992;4.504;2023-05-14T14:45:32;6.75;;;6.75;;